Time;durP1;ratioP1;P1;durP2;ratioP2;P2;SDS_P1;SDS_P2;PMS_P1;PMS_P2;Temp;Humidity;BMP_temperature;BMP_pressure;BME280_temperature;BME280_humidity;BME280_pressure;Samples;Min_cycle;Max_cycle;Signal;HPM_P1;HPM_P2
2024/04/17 00:03:00;;;;;;;0.70;0.33;;;;;;;3.90;100.00;96436.00;6704210;26;20233;-56
2024/04/17 00:06:03;;;;;;;4.93;0.43;;;;;;;3.90;100.00;96431.53;6713828;26;20232;-54
2024/04/17 00:09:06;;;;;;;0.70;0.53;;;;;;;4.04;100.00;96430.28;6705727;26;20245;-56
2024/04/17 00:12:08;;;;;;;0.70;0.57;;;;;;;4.07;100.00;96432.44;6705498;26;20242;-55
2024/04/17 00:15:12;;;;;;;1.03;0.50;;;;;;;4.06;100.00;96433.47;6709157;26;20221;-55
2024/04/17 00:18:14;;;;;;;1.37;0.57;;;;;;;4.15;100.00;96418.09;6723251;26;20279;-56
2024/04/17 00:21:17;;;;;;;1.27;0.60;;;;;;;4.21;100.00;96425.06;6710928;26;20246;-55
2024/04/17 00:24:19;;;;;;;1.27;0.53;;;;;;;4.41;100.00;96419.41;6702366;26;20238;-53
2024/04/17 00:27:22;;;;;;;1.80;0.70;;;;;;;4.48;100.00;96416.63;6703798;26;20349;-56
2024/04/17 00:30:24;;;;;;;1.27;0.60;;;;;;;4.55;100.00;96410.22;6686699;26;20335;-56
2024/04/17 00:33:27;;;;;;;2.47;0.80;;;;;;;4.71;100.00;96407.84;6712642;26;20599;-55
2024/04/17 00:36:29;;;;;;;2.60;0.67;;;;;;;4.69;100.00;96413.38;6746425;26;20227;-55
2024/04/17 00:39:32;;;;;;;2.67;0.67;;;;;;;4.76;100.00;96406.09;6722962;26;20297;-53
2024/04/17 00:42:34;;;;;;;2.27;0.60;;;;;;;4.76;100.00;96408.75;6703692;26;20227;-56
2024/04/17 00:45:43;;;;;;;1.13;0.63;;;;;;;4.82;100.00;96407.78;6711843;26;20242;-55
2024/04/17 00:48:46;;;;;;;1.17;0.60;;;;;;;4.73;100.00;96392.59;6705413;26;20236;-56
2024/04/17 00:51:50;;;;;;;3.77;0.70;;;;;;;4.85;100.00;96382.78;6710561;26;20239;-55
2024/04/17 00:54:53;;;;;;;0.93;0.60;;;;;;;4.91;100.00;96398.47;6702908;26;20298;-56
2024/04/17 00:57:56;;;;;;;2.60;0.90;;;;;;;5.41;100.00;96391.63;6700007;26;20246;-52
2024/04/17 01:00:59;;;;;;;2.73;0.50;;;;;;;5.66;100.00;96396.50;6712998;26;20277;-55
2024/04/17 01:04:02;;;;;;;0.83;0.60;;;;;;;5.53;100.00;96402.13;6702921;26;20232;-54
2024/04/17 01:07:04;;;;;;;1.27;0.60;;;;;;;5.47;100.00;96398.63;6702864;26;20229;-53
2024/04/17 01:10:07;;;;;;;1.87;0.93;;;;;;;5.48;100.00;96394.94;6702353;26;20294;-56
2024/04/17 01:13:10;;;;;;;3.23;0.80;;;;;;;5.53;100.00;96404.78;6702392;26;20247;-56
2024/04/17 01:16:12;;;;;;;1.37;0.80;;;;;;;5.48;100.00;96399.41;6701068;26;20239;-55
2024/04/17 01:19:15;;;;;;;1.93;0.70;;;;;;;5.57;100.00;96401.41;6702591;26;20288;-56
2024/04/17 01:22:18;;;;;;;0.80;0.50;;;;;;;5.73;100.00;96397.16;6702159;26;20235;-53
2024/04/17 01:25:21;;;;;;;2.50;0.60;;;;;;;6.08;94.09;96401.34;6722291;26;20290;-56
2024/04/17 01:28:24;;;;;;;1.40;0.97;;;;;;;6.23;94.75;96411.34;6718512;26;20285;-55
2024/04/17 01:31:26;;;;;;;0.53;0.30;;;;;;;6.16;100.00;96408.88;6706489;26;20285;-54
2024/04/17 01:34:30;;;;;;;0.93;0.37;;;;;;;6.08;100.00;96401.34;6726560;26;20238;-54
2024/04/17 01:37:32;;;;;;;2.10;0.50;;;;;;;5.97;100.00;96404.91;6728136;26;20236;-56
2024/04/17 01:40:35;;;;;;;2.27;0.30;;;;;;;5.89;100.00;96403.44;6708973;26;20289;-57
2024/04/17 01:43:37;;;;;;;1.10;0.50;;;;;;;6.08;100.00;96404.78;6707679;26;20304;-56
2024/04/17 01:46:40;;;;;;;2.20;0.60;;;;;;;6.13;99.67;96390.84;6707646;26;20293;-55
2024/04/17 01:49:43;;;;;;;3.00;0.33;;;;;;;6.17;99.23;96405.97;6719919;26;20235;-56
2024/04/17 01:52:45;;;;;;;1.73;0.30;;;;;;;6.12;100.00;96399.81;6721509;26;20243;-55
2024/04/17 01:55:48;;;;;;;1.77;0.50;;;;;;;6.19;100.00;96403.09;6710915;26;20275;-53
2024/04/17 01:58:51;;;;;;;0.60;0.30;;;;;;;5.86;100.00;96375.69;6731476;26;20236;-55
2024/04/17 02:01:54;;;;;;;2.93;0.53;;;;;;;5.88;100.00;96397.34;6706324;26;20229;-55
2024/04/17 02:04:56;;;;;;;0.27;0.23;;;;;;;5.93;100.00;96399.31;6706029;26;20278;-54
2024/04/17 02:07:59;;;;;;;0.70;0.40;;;;;;;6.00;100.00;96378.78;6704057;26;20298;-56
2024/04/17 02:11:03;;;;;;;0.77;0.30;;;;;;;6.02;100.00;96397.84;6705953;26;20294;-56
2024/04/17 02:14:06;;;;;;;0.20;0.20;;;;;;;6.18;95.29;96397.00;6714270;26;20239;-56
2024/04/17 02:17:08;;;;;;;0.57;0.40;;;;;;;6.30;93.68;96390.78;6705771;26;20243;-56
2024/04/17 02:20:11;;;;;;;2.00;0.40;;;;;;;6.33;97.83;96399.03;6705921;26;20240;-53
2024/04/17 02:23:13;;;;;;;1.20;0.30;;;;;;;6.32;98.54;96402.72;6698448;26;20236;-56
2024/04/17 02:26:16;;;;;;;1.13;0.30;;;;;;;6.14;100.00;96413.59;6715420;26;20739;-56
2024/04/17 02:29:18;;;;;;;0.53;0.20;;;;;;;6.09;100.00;96400.31;6725201;26;20310;-55
2024/04/17 02:32:21;;;;;;;1.83;0.20;;;;;;;6.04;100.00;96393.09;6705401;26;20274;-55
2024/04/17 02:35:23;;;;;;;0.83;0.30;;;;;;;6.18;95.80;96397.00;6706532;26;20239;-56
2024/04/17 02:38:26;;;;;;;1.47;0.30;;;;;;;6.16;100.00;96403.59;6705077;26;20243;-56
2024/04/17 02:41:28;;;;;;;0.13;0.10;;;;;;;6.15;100.00;96409.91;6717473;26;20279;-56
2024/04/17 02:44:31;;;;;;;0.37;0.30;;;;;;;6.49;98.62;96407.94;6717216;26;20361;-54
2024/04/17 02:47:34;;;;;;;0.90;0.20;;;;;;;6.19;100.00;96389.84;6705867;26;20291;-52
2024/04/17 02:50:40;;;;;;;1.20;0.20;;;;;;;6.27;100.00;96400.03;6709898;26;20249;-56
2024/04/17 02:53:43;;;;;;;0.63;0.27;;;;;;;6.24;96.85;96408.44;6705410;26;20277;-54
2024/04/17 02:56:45;;;;;;;2.30;0.30;;;;;;;6.02;100.00;96403.13;6718330;26;20243;-56
2024/04/17 02:59:47;;;;;;;1.23;0.50;;;;;;;6.11;99.12;96409.59;6707534;26;20308;-56
2024/04/17 03:02:50;;;;;;;0.30;0.30;;;;;;;6.11;98.44;96400.88;6698600;26;20342;-56
2024/04/17 03:05:52;;;;;;;0.67;0.50;;;;;;;6.00;99.89;96404.41;6724254;26;20233;-56
2024/04/17 03:08:55;;;;;;;0.30;0.30;;;;;;;5.87;100.00;96401.06;6716594;26;20273;-56
2024/04/17 03:11:57;;;;;;;6.60;0.70;;;;;;;5.81;100.00;96412.59;6718408;26;20285;-55
2024/04/17 03:15:00;;;;;;;0.30;0.30;;;;;;;5.75;100.00;96407.47;6708636;26;20238;-54
2024/04/17 03:18:03;;;;;;;0.40;0.40;;;;;;;5.69;100.00;96412.66;6709863;26;20307;-57
2024/04/17 03:21:05;;;;;;;1.80;0.30;;;;;;;5.52;100.00;96411.09;6704957;26;20228;-56
2024/04/17 03:24:08;;;;;;;0.40;0.40;;;;;;;5.54;100.00;96419.56;6721217;26;20283;-56
2024/04/17 03:27:10;;;;;;;1.17;0.57;;;;;;;5.49;100.00;96411.56;6714675;26;20659;-53
2024/04/17 03:30:13;;;;;;;0.50;0.50;;;;;;;5.54;100.00;96416.94;6698435;26;20290;-55
2024/04/17 03:33:16;;;;;;;0.33;0.20;;;;;;;5.53;100.00;96424.06;6721213;26;20403;-53
2024/04/17 03:36:19;;;;;;;0.63;0.30;;;;;;;5.38;100.00;96419.34;6724378;26;20233;-55
2024/04/17 03:39:21;;;;;;;0.40;0.40;;;;;;;5.36;100.00;96420.59;6712794;26;20285;-55
2024/04/17 03:42:24;;;;;;;0.83;0.60;;;;;;;5.27;100.00;96419.38;6705851;26;20241;-53
2024/04/17 03:45:28;;;;;;;0.27;0.27;;;;;;;5.28;100.00;96415.72;6704467;26;20222;-55
2024/04/17 03:48:32;;;;;;;0.73;0.73;;;;;;;5.25;100.00;96413.56;6711934;26;20230;-52
2024/04/17 03:51:34;;;;;;;0.67;0.57;;;;;;;5.36;97.52;96433.81;6709587;26;20243;-53
2024/04/17 03:54:37;;;;;;;2.10;0.60;;;;;;;5.33;99.14;96437.75;6705609;26;20284;-55
2024/04/17 03:57:39;;;;;;;2.40;0.90;;;;;;;5.39;100.00;96441.25;6716745;26;20278;-54
2024/04/17 04:00:42;;;;;;;0.70;0.70;;;;;;;5.60;96.08;96437.91;6719227;26;20277;-56
2024/04/17 04:03:45;;;;;;;1.27;0.73;;;;;;;5.54;95.84;96451.28;6714006;26;20242;-54
2024/04/17 04:06:47;;;;;;;0.60;0.60;;;;;;;5.54;97.02;96453.91;6717192;26;20277;-56
2024/04/17 04:09:50;;;;;;;0.50;0.50;;;;;;;5.43;100.00;96459.03;6734109;26;20277;-53
2024/04/17 04:12:53;;;;;;;1.07;0.50;;;;;;;5.28;100.00;96458.78;6706158;26;20297;-55
2024/04/17 04:15:55;;;;;;;0.57;0.57;;;;;;;5.24;100.00;96476.13;6703541;26;20240;-54
2024/04/17 04:18:58;;;;;;;0.60;0.60;;;;;;;5.12;100.00;96478.00;6710825;26;20280;-53
2024/04/17 04:22:00;;;;;;;0.63;0.63;;;;;;;5.14;100.00;96481.22;6705082;26;20282;-55
2024/04/17 04:25:03;;;;;;;2.23;0.90;;;;;;;5.22;99.71;96477.38;6703368;26;20328;-53
2024/04/17 04:28:05;;;;;;;0.90;0.70;;;;;;;5.24;99.00;96476.13;6715086;26;20690;-55
2024/04/17 04:31:08;;;;;;;1.80;0.67;;;;;;;5.25;96.00;96484.84;6714121;26;20235;-55
2024/04/17 04:34:10;;;;;;;1.63;1.20;;;;;;;5.30;96.83;96488.38;6704179;26;20239;-56
2024/04/17 04:37:13;;;;;;;0.80;0.80;;;;;;;5.28;96.63;96493.09;6737768;26;20332;-54
2024/04/17 04:40:16;;;;;;;0.70;0.70;;;;;;;5.24;99.24;96493.81;6704210;26;20239;-53
2024/04/17 04:43:18;;;;;;;1.10;0.90;;;;;;;5.38;96.63;96503.84;6717531;26;20241;-53
2024/04/17 04:46:21;;;;;;;0.90;0.70;;;;;;;5.41;100.00;96507.81;6706736;26;20233;-55
2024/04/17 04:49:23;;;;;;;0.97;0.97;;;;;;;5.64;93.81;96502.44;6708042;26;20669;-55
2024/04/17 04:52:26;;;;;;;1.17;1.07;;;;;;;5.58;93.18;96499.94;6714683;26;20242;-56
2024/04/17 04:55:28;;;;;;;1.57;1.03;;;;;;;5.40;91.26;96471.91;6709099;26;20246;-56
2024/04/17 04:58:32;;;;;;;1.00;1.00;;;;;;;5.52;90.62;96499.06;6706292;26;20238;-55
2024/04/17 05:01:34;;;;;;;1.30;1.20;;;;;;;5.35;91.37;96500.88;6688294;26;20234;-55
2024/04/17 05:04:37;;;;;;;1.57;1.30;;;;;;;5.51;91.42;96515.94;6706607;26;20730;-55
2024/04/17 05:07:39;;;;;;;1.20;1.10;;;;;;;5.52;91.36;96504.34;6714301;26;20225;-55
2024/04/17 05:10:42;;;;;;;1.37;1.20;;;;;;;5.63;90.32;96505.31;6707867;26;20642;-56
2024/04/17 05:13:45;;;;;;;1.70;1.60;;;;;;;5.46;91.37;96501.84;6707708;26;20640;-55
2024/04/17 05:16:47;;;;;;;2.47;1.30;;;;;;;5.59;91.92;96515.53;6707899;26;20289;-55
2024/04/17 05:19:50;;;;;;;2.10;1.40;;;;;;;5.57;94.22;96493.06;6702673;26;20563;-51
2024/04/17 05:22:52;;;;;;;1.40;1.30;;;;;;;5.39;96.22;96500.16;6706496;26;20260;-56
2024/04/17 05:25:55;;;;;;;1.27;1.00;;;;;;;5.50;97.09;96524.91;6706747;26;20641;-53
2024/04/17 05:28:58;;;;;;;0.90;0.87;;;;;;;5.42;99.79;96514.75;6705725;26;20281;-56
2024/04/17 05:32:00;;;;;;;1.00;1.00;;;;;;;5.72;97.36;96525.03;6710946;26;20239;-53
2024/04/17 05:35:04;;;;;;;1.60;1.50;;;;;;;5.81;91.08;96523.59;6706679;26;20244;-54
2024/04/17 05:38:06;;;;;;;1.43;1.33;;;;;;;5.65;92.35;96517.22;6707686;26;20283;-56
2024/04/17 05:41:12;;;;;;;1.33;1.23;;;;;;;5.56;96.04;96525.78;6708434;26;20251;-57
2024/04/17 05:44:14;;;;;;;1.30;1.20;;;;;;;5.52;99.47;96519.41;6728377;26;20233;-55
2024/04/17 05:47:17;;;;;;;1.07;1.00;;;;;;;5.57;100.00;96522.91;6716829;26;20243;-56
2024/04/17 05:50:19;;;;;;;1.83;1.40;;;;;;;5.94;90.98;96527.78;6712027;26;20665;-56
2024/04/17 05:53:22;;;;;;;1.87;1.67;;;;;;;5.80;92.67;96524.59;6707702;26;20235;-56
2024/04/17 05:56:25;;;;;;;1.50;1.40;;;;;;;5.81;94.64;96536.81;6706581;26;20784;-55
2024/04/17 05:59:27;;;;;;;5.40;2.07;;;;;;;5.83;97.50;96526.78;6721359;26;20244;-54
2024/04/17 06:02:30;;;;;;;2.40;1.50;;;;;;;5.99;93.56;96527.06;6717341;26;20290;-57
2024/04/17 06:05:32;;;;;;;2.53;1.50;;;;;;;6.15;89.76;96534.97;6700741;26;20244;-55
2024/04/17 06:08:35;;;;;;;1.87;1.73;;;;;;;6.09;90.05;96533.28;6693817;26;20627;-56
2024/04/17 06:11:38;;;;;;;1.67;1.53;;;;;;;6.23;89.77;96528.47;6717031;26;20236;-56
2024/04/17 06:14:41;;;;;;;2.23;1.90;;;;;;;6.25;91.13;96539.59;6714406;26;20293;-51
2024/04/17 06:17:43;;;;;;;2.10;1.53;;;;;;;6.35;93.66;96529.16;6742233;26;20235;-56
2024/04/17 06:20:46;;;;;;;1.83;1.73;;;;;;;6.49;86.11;96521.69;6730448;26;20312;-56
2024/04/17 06:23:48;;;;;;;2.03;1.87;;;;;;;6.26;84.73;96506.06;6716204;26;20312;-55
2024/04/17 06:26:51;;;;;;;3.30;1.80;;;;;;;6.23;87.85;96511.81;6717805;26;20728;-57
2024/04/17 06:29:53;;;;;;;2.57;1.93;;;;;;;6.15;85.82;96513.81;6711672;26;20269;-51
2024/04/17 06:32:56;;;;;;;2.20;2.00;;;;;;;6.17;85.68;96522.31;6705797;26;20242;-55
2024/04/17 06:35:59;;;;;;;2.37;2.17;;;;;;;6.25;84.52;96528.22;6726435;26;20342;-55
2024/04/17 06:39:01;;;;;;;2.30;1.90;;;;;;;6.26;86.94;96532.50;6731832;26;20246;-54
2024/04/17 06:42:04;;;;;;;5.47;2.23;;;;;;;6.35;81.67;96529.16;6713943;26;20319;-54
2024/04/17 06:45:06;;;;;;;2.83;2.30;;;;;;;6.27;83.42;96515.59;6702870;26;20240;-57
2024/04/17 06:48:09;;;;;;;2.30;2.10;;;;;;;6.31;81.93;96522.78;6705185;26;20242;-56
2024/04/17 06:51:12;;;;;;;2.57;2.30;;;;;;;6.55;79.25;96522.56;6705454;26;20241;-55
2024/04/17 06:54:14;;;;;;;2.17;1.70;;;;;;;6.68;78.39;96511.63;6713789;26;20289;-57
2024/04/17 06:57:17;;;;;;;1.70;1.60;;;;;;;6.64;76.48;96511.31;6708332;26;20286;-54
2024/04/17 07:00:20;;;;;;;2.43;2.20;;;;;;;6.57;75.49;96502.78;6714588;26;20238;-57
2024/04/17 07:03:23;;;;;;;2.50;2.30;;;;;;;6.67;76.34;96521.41;6718460;26;20354;-56
2024/04/17 07:06:26;;;;;;;2.33;2.13;;;;;;;6.62;77.00;96513.41;6704505;26;20289;-54
2024/04/17 07:09:28;;;;;;;2.40;2.20;;;;;;;6.89;75.82;96521.41;6709274;26;20929;-54
2024/04/17 07:12:31;;;;;;;3.13;2.13;;;;;;;6.93;74.80;96519.88;6703765;26;20247;-55
2024/04/17 07:15:33;;;;;;;2.83;2.30;;;;;;;7.07;77.76;96524.81;6714753;26;20778;-55
2024/04/17 07:18:36;;;;;;;2.30;2.03;;;;;;;7.21;77.74;96518.09;6726924;26;20583;-56
2024/04/17 07:21:38;;;;;;;2.67;2.33;;;;;;;7.20;75.72;96525.22;6726408;26;20270;-54
2024/04/17 07:24:41;;;;;;;3.43;2.37;;;;;;;7.20;76.32;96527.09;6705786;26;20324;-56
2024/04/17 07:27:44;;;;;;;2.67;1.80;;;;;;;7.27;75.63;96524.22;6704680;26;20292;-55
2024/04/17 07:30:47;;;;;;;2.03;1.90;;;;;;;7.22;74.53;96524.97;6719349;26;20239;-54
2024/04/17 07:33:50;;;;;;;2.40;2.20;;;;;;;7.18;74.13;96508.78;6716261;26;20238;-57
2024/04/17 07:36:52;;;;;;;2.40;2.03;;;;;;;7.45;71.00;96527.34;6705556;26;20252;-53
2024/04/17 07:39:55;;;;;;;2.40;2.20;;;;;;;7.41;72.23;96526.25;6708113;26;20237;-56
2024/04/17 07:42:57;;;;;;;2.70;2.10;;;;;;;7.32;73.68;96534.88;6770949;26;20274;-53
2024/04/17 07:46:01;;;;;;;5.27;2.50;;;;;;;7.50;71.99;96530.03;6688807;26;20273;-54
2024/04/17 07:49:03;;;;;;;2.13;1.90;;;;;;;7.50;71.21;96530.03;6719045;26;20284;-55
2024/04/17 07:52:06;;;;;;;2.03;1.90;;;;;;;7.45;72.05;96530.00;6678099;26;20945;-56
2024/04/17 07:55:08;;;;;;;4.83;2.00;;;;;;;7.57;72.99;96542.28;6703502;26;20721;-55
2024/04/17 07:58:11;;;;;;;2.90;2.60;;;;;;;7.54;71.72;96542.78;6711878;26;20247;-56
2024/04/17 08:01:13;;;;;;;3.17;2.07;;;;;;;7.39;72.00;96535.47;6703494;26;20987;-54
2024/04/17 08:04:16;;;;;;;2.97;2.53;;;;;;;7.45;72.63;96530.00;6703780;26;20294;-55
2024/04/17 08:07:19;;;;;;;2.87;2.03;;;;;;;7.73;74.40;96531.59;6701650;26;20236;-54
2024/04/17 08:10:21;;;;;;;2.63;2.37;;;;;;;7.72;71.54;96543.22;6727655;26;20784;-55
2024/04/17 08:13:24;;;;;;;3.20;2.90;;;;;;;7.36;72.73;96547.38;6705937;26;20412;-55
2024/04/17 08:16:27;;;;;;;2.90;2.57;;;;;;;7.37;72.22;96543.69;6705959;26;20286;-53
2024/04/17 08:19:29;;;;;;;2.70;2.50;;;;;;;7.63;75.48;96542.06;6703421;26;20296;-55
2024/04/17 08:22:32;;;;;;;3.03;2.30;;;;;;;7.96;72.99;96538.41;6715458;26;20236;-56
2024/04/17 08:25:34;;;;;;;2.80;2.50;;;;;;;8.05;71.20;96544.03;6708431;26;20616;-52
2024/04/17 08:28:37;;;;;;;2.80;2.40;;;;;;;8.23;79.30;96534.91;6710963;26;20240;-57
2024/04/17 08:31:40;;;;;;;2.63;2.30;;;;;;;8.19;73.21;96542.56;6703543;26;20226;-54
2024/04/17 08:34:42;;;;;;;3.40;3.10;;;;;;;8.27;73.68;96533.31;6702731;26;20360;-54
2024/04/17 08:37:45;;;;;;;4.37;3.00;;;;;;;8.09;74.70;96537.19;6702181;26;20236;-55
2024/04/17 08:40:51;;;;;;;3.50;3.10;;;;;;;8.17;72.68;96528.75;6713807;26;20244;-55
2024/04/17 08:43:59;;;;;;;3.77;2.90;;;;;;;8.50;69.85;96538.28;6710679;26;21034;-53
2024/04/17 08:47:06;;;;;;;2.63;2.43;;;;;;;8.53;72.88;96529.81;6717848;26;20251;-54
2024/04/17 08:50:13;;;;;;;5.13;2.30;;;;;;;8.64;74.17;96540.50;6729602;26;20736;-54
2024/04/17 08:53:18;;;;;;;3.53;3.13;;;;;;;8.42;70.30;96538.78;6705321;26;20279;-55
2024/04/17 08:56:26;;;;;;;4.27;2.60;;;;;;;8.26;71.87;96548.44;6702995;26;20283;-55
2024/04/17 08:59:28;;;;;;;3.30;3.00;;;;;;;8.00;70.60;96554.63;6702429;26;20240;-55
2024/04/17 09:02:33;;;;;;;4.07;3.13;;;;;;;7.90;70.17;96542.06;6707163;26;20863;-56
2024/04/17 09:05:36;;;;;;;6.67;3.43;;;;;;;8.18;76.30;96548.94;6712464;26;20280;-56
2024/04/17 09:08:41;;;;;;;7.20;3.40;;;;;;;8.09;71.15;96547.00;6708887;26;20342;-56
2024/04/17 09:11:45;;;;;;;4.63;2.90;;;;;;;8.14;69.40;96563.75;6702014;26;20233;-54
2024/04/17 09:14:51;;;;;;;4.10;3.40;;;;;;;8.20;70.54;96554.78;6701065;26;20581;-52
2024/04/17 09:18:01;;;;;;;3.73;3.43;;;;;;;8.23;71.27;96548.16;6717249;26;20265;-54
2024/04/17 09:21:05;;;;;;;3.67;3.33;;;;;;;8.46;71.20;96554.97;6716589;26;20656;-55
2024/04/17 09:24:08;;;;;;;4.17;3.60;;;;;;;8.37;68.81;96570.56;6700382;26;20237;-54
2024/04/17 09:27:15;;;;;;;4.17;3.80;;;;;;;8.28;68.20;96558.81;6703259;26;20279;-54
2024/04/17 09:30:17;;;;;;;4.40;3.70;;;;;;;8.43;69.45;96564.25;6714224;26;20236;-52
2024/04/17 09:33:20;;;;;;;4.53;4.00;;;;;;;8.61;68.18;96549.75;6713738;26;20232;-53
2024/04/17 09:36:24;;;;;;;4.67;3.33;;;;;;;8.62;73.66;96551.38;6700796;26;20236;-56
2024/04/17 09:39:27;;;;;;;3.77;3.00;;;;;;;8.87;70.48;96549.91;6734429;26;20237;-54
2024/04/17 09:42:29;;;;;;;3.53;3.23;;;;;;;8.95;68.56;96555.50;6707629;26;20241;-55
2024/04/17 09:45:35;;;;;;;3.63;3.33;;;;;;;8.63;66.71;96558.28;6707484;26;20233;-55
2024/04/17 09:48:41;;;;;;;4.20;3.80;;;;;;;8.42;67.82;96549.41;6703625;26;20284;-52
2024/04/17 09:51:46;;;;;;;4.03;2.90;;;;;;;8.62;68.67;96539.94;6706057;26;20288;-53
2024/04/17 09:54:50;;;;;;;3.80;2.90;;;;;;;8.66;70.50;96544.47;6725084;26;20241;-52
2024/04/17 09:57:56;;;;;;;5.37;3.20;;;;;;;8.64;68.92;96538.63;6707237;26;20233;-52
2024/04/17 10:01:03;;;;;;;3.30;3.00;;;;;;;8.80;71.01;96558.09;6709226;26;20277;-54
2024/04/17 10:04:08;;;;;;;3.63;2.73;;;;;;;9.00;68.15;96557.41;6706686;26;20268;-55
2024/04/17 10:07:16;;;;;;;3.60;3.23;;;;;;;8.41;65.99;96539.81;6712819;26;20300;-52
2024/04/17 10:10:20;;;;;;;3.73;2.60;;;;;;;8.72;65.94;96545.34;6693040;26;20724;-56
2024/04/17 10:13:24;;;;;;;2.60;2.40;;;;;;;8.76;64.74;96555.16;6709884;26;20249;-53
2024/04/17 10:16:27;;;;;;;3.17;2.73;;;;;;;8.69;66.72;96559.91;6705852;26;20233;-55
2024/04/17 10:19:29;;;;;;;3.37;2.77;;;;;;;8.57;63.82;96556.66;6709823;26;20237;-57
2024/04/17 10:22:33;;;;;;;2.57;2.37;;;;;;;8.65;62.82;96558.03;6718909;26;20232;-52
2024/04/17 10:25:46;;;;;;;3.40;2.20;;;;;;;8.78;64.04;96558.38;6719636;26;20238;-54
2024/04/17 10:28:52;;;;;;;2.30;2.10;;;;;;;8.71;64.00;96559.63;6707493;26;20288;-55
2024/04/17 10:32:11;;;;;;;2.30;2.10;;;;;;;8.71;62.69;96565.75;6705347;26;20268;-55
2024/04/17 10:35:14;;;;;;;2.87;1.97;;;;;;;8.76;64.55;96560.47;6706437;26;20233;-55
2024/04/17 10:38:17;;;;;;;2.10;2.00;;;;;;;8.85;66.77;96555.47;6683931;26;20236;-56
2024/04/17 10:41:33;;;;;;;2.00;1.80;;;;;;;8.96;59.91;96558.97;6708571;26;20233;-55
2024/04/17 10:44:45;;;;;;;1.73;1.63;;;;;;;9.28;61.21;96551.66;6722112;26;20291;-55
2024/04/17 10:47:49;;;;;;;2.23;1.80;;;;;;;9.31;57.49;96555.69;6717405;26;20245;-54
2024/04/17 10:50:53;;;;;;;1.80;1.70;;;;;;;9.55;61.03;96537.38;6730388;26;20241;-55
2024/04/17 10:53:56;;;;;;;1.67;1.53;;;;;;;9.53;58.69;96539.50;6709266;26;20294;-56
2024/04/17 10:57:01;;;;;;;1.70;1.50;;;;;;;9.67;59.19;96537.16;6713848;26;20232;-55
2024/04/17 11:00:05;;;;;;;2.67;1.67;;;;;;;9.65;58.21;96536.59;6704502;26;20239;-55
2024/04/17 11:03:11;;;;;;;1.70;1.30;;;;;;;9.65;58.29;96541.91;6708661;26;20615;-54
2024/04/17 11:06:14;;;;;;;1.63;1.53;;;;;;;9.43;54.42;96547.47;6706905;26;20763;-55
2024/04/17 11:09:17;;;;;;;1.90;1.60;;;;;;;9.22;53.30;96539.44;6708576;26;20237;-53
2024/04/17 11:12:20;;;;;;;1.60;1.50;;;;;;;9.32;54.33;96532.56;6703848;26;20357;-52
2024/04/17 11:15:23;;;;;;;1.87;1.73;;;;;;;9.48;55.23;96529.66;6704567;26;20759;-54
2024/04/17 11:18:25;;;;;;;1.83;1.57;;;;;;;9.66;54.25;96546.19;6714280;26;20253;-53
2024/04/17 11:21:28;;;;;;;2.17;1.83;;;;;;;9.55;58.87;96554.13;6704247;26;20287;-52
2024/04/17 11:24:32;;;;;;;3.40;2.10;;;;;;;9.20;61.50;96546.06;6704186;26;20244;-54
2024/04/17 11:27:34;;;;;;;1.90;1.80;;;;;;;9.07;60.79;96538.59;6704343;26;20334;-54
2024/04/17 11:30:37;;;;;;;2.40;2.03;;;;;;;9.15;59.67;96541.50;6704658;26;20231;-55
2024/04/17 11:33:40;;;;;;;1.80;1.70;;;;;;;9.26;58.96;96539.69;6714848;26;20245;-53
2024/04/17 11:36:43;;;;;;;2.50;1.90;;;;;;;9.48;59.33;96531.53;6706377;26;20241;-55
2024/04/17 11:39:45;;;;;;;4.27;2.80;;;;;;;9.67;54.45;96531.81;6704332;26;20291;-53
2024/04/17 11:42:50;;;;;;;2.43;2.23;;;;;;;9.67;55.92;96561.88;6707567;26;20275;-53
2024/04/17 11:45:52;;;;;;;2.33;2.13;;;;;;;9.11;60.43;96580.28;6705862;26;20295;-53
2024/04/17 11:48:56;;;;;;;3.63;2.23;;;;;;;8.26;68.65;96590.88;6703186;26;20252;-53
2024/04/17 11:51:59;;;;;;;2.83;2.40;;;;;;;7.89;77.04;96588.19;6670082;26;20292;-54
2024/04/17 11:55:02;;;;;;;2.37;2.20;;;;;;;7.75;85.08;96579.84;6701801;26;20326;-54
2024/04/17 11:58:05;;;;;;;2.87;2.57;;;;;;;7.68;87.95;96579.22;6703528;26;20697;-55
2024/04/17 12:01:08;;;;;;;2.47;2.27;;;;;;;7.69;94.04;96570.25;6714530;26;20704;-55
2024/04/17 12:04:10;;;;;;;4.10;2.73;;;;;;;7.79;99.62;96558.16;6701923;26;20336;-53
2024/04/17 12:07:13;;;;;;;3.20;2.90;;;;;;;7.87;100.00;96550.50;6708410;26;20302;-56
2024/04/17 12:10:17;;;;;;;4.03;3.03;;;;;;;8.25;100.00;96538.09;6705415;26;20347;-57
2024/04/17 12:13:19;;;;;;;3.13;2.60;;;;;;;8.14;91.34;96531.13;6701328;26;20245;-55
2024/04/17 12:16:22;;;;;;;2.80;2.50;;;;;;;8.18;94.52;96529.56;6696167;26;20643;-56
2024/04/17 12:19:24;;;;;;;3.00;2.70;;;;;;;8.58;91.96;96538.88;6719253;26;20621;-52
2024/04/17 12:22:27;;;;;;;4.13;2.20;;;;;;;8.77;82.35;96529.44;6715476;26;20233;-55
2024/04/17 12:29:02;;;;;;;2.00;1.90;;;;;;;8.88;76.57;96514.34;6651286;26;20307;-54
2024/04/17 12:32:06;;;;;;;5.37;2.30;;;;;;;9.13;78.68;96510.97;6703084;26;20646;-54
2024/04/17 12:35:09;;;;;;;2.27;2.10;;;;;;;9.27;72.71;96514.72;6705448;26;20233;-54
2024/04/17 12:38:13;;;;;;;2.80;2.60;;;;;;;9.37;71.30;96516.63;6705348;26;20233;-56
2024/04/17 12:41:16;;;;;;;2.33;2.13;;;;;;;9.41;69.15;96507.03;6728611;26;20236;-54
2024/04/17 12:44:19;;;;;;;2.77;2.23;;;;;;;9.45;70.05;96516.09;6720928;26;20281;-56
2024/04/17 12:47:22;;;;;;;3.13;2.40;;;;;;;9.48;65.92;96503.06;6718496;26;20349;-54
2024/04/17 12:50:25;;;;;;;3.27;2.00;;;;;;;9.39;68.79;96496.69;6711451;26;20832;-54
2024/04/17 12:53:27;;;;;;;4.77;2.33;;;;;;;9.48;65.09;96502.28;6704427;26;20246;-54
2024/04/17 12:56:30;;;;;;;2.40;2.20;;;;;;;9.37;67.26;96492.69;6705422;26;20318;-55
2024/04/17 12:59:33;;;;;;;2.37;2.17;;;;;;;9.28;69.21;96493.22;6702662;26;20243;-54
2024/04/17 13:02:35;;;;;;;3.43;2.67;;;;;;;9.39;70.27;96512.63;6701229;26;20278;-55
2024/04/17 13:05:40;;;;;;;2.90;2.17;;;;;;;9.09;75.66;96533.78;6703621;26;20646;-56
2024/04/17 13:08:45;;;;;;;4.47;2.87;;;;;;;8.07;85.83;96535.81;6703168;26;20246;-54
2024/04/17 13:11:48;;;;;;;5.37;3.17;;;;;;;7.71;92.18;96519.63;6702417;26;20691;-54
2024/04/17 13:14:52;;;;;;;6.37;3.50;;;;;;;7.61;100.00;96524.84;6676077;26;20249;-56
2024/04/17 13:17:54;;;;;;;4.20;3.80;;;;;;;7.57;100.00;96518.44;6701513;26;20237;-55
2024/04/17 13:20:57;;;;;;;4.60;3.50;;;;;;;7.62;100.00;96516.63;6705358;26;20237;-52
2024/04/17 13:24:00;;;;;;;4.23;3.50;;;;;;;7.76;100.00;96509.06;6673266;26;20232;-55
2024/04/17 13:27:03;;;;;;;4.60;4.20;;;;;;;7.82;100.00;96510.69;6708536;26;20318;-56
2024/04/17 13:30:06;;;;;;;4.00;3.70;;;;;;;7.93;100.00;96515.06;6715440;26;20249;-53
2024/04/17 13:33:09;;;;;;;5.40;3.63;;;;;;;7.98;97.81;96504.50;6707214;26;20241;-54
2024/04/17 13:36:12;;;;;;;3.27;3.00;;;;;;;8.22;97.63;96496.16;6706401;26;20278;-54
2024/04/17 13:39:15;;;;;;;3.30;3.00;;;;;;;8.44;100.00;96485.44;6716342;26;20292;-52
2024/04/17 13:42:18;;;;;;;3.73;3.33;;;;;;;8.58;100.00;96485.78;6707137;26;20343;-55
2024/04/17 13:45:20;;;;;;;3.80;2.70;;;;;;;8.83;99.17;96495.72;6708663;26;20232;-52
2024/04/17 13:48:23;;;;;;;3.07;2.77;;;;;;;9.06;82.80;96497.91;6700818;26;20925;-55
2024/04/17 13:51:25;;;;;;;2.10;1.70;;;;;;;9.02;72.73;96505.63;6733382;26;20229;-50
2024/04/17 13:54:28;;;;;;;1.87;1.40;;;;;;;8.83;70.38;96512.44;6720595;26;20230;-56
2024/04/17 13:57:31;;;;;;;1.77;1.60;;;;;;;8.88;76.64;96503.72;6708411;26;20249;-54
2024/04/17 14:00:36;;;;;;;1.97;1.50;;;;;;;8.81;76.20;96505.78;6706448;26;20662;-56
2024/04/17 14:03:40;;;;;;;1.83;1.60;;;;;;;8.67;77.82;96514.25;6706258;26;20643;-56
2024/04/17 14:06:43;;;;;;;1.80;1.70;;;;;;;8.59;80.46;96521.88;6712909;26;20306;-54
2024/04/17 14:09:45;;;;;;;2.93;2.20;;;;;;;8.41;90.31;96526.53;6714305;26;20370;-56
2024/04/17 14:12:48;;;;;;;2.40;1.97;;;;;;;8.23;86.86;96521.66;6711400;26;20245;-54
2024/04/17 14:15:50;;;;;;;4.07;2.40;;;;;;;8.48;75.11;96515.72;6707630;26;20224;-55
2024/04/17 14:18:53;;;;;;;2.23;2.03;;;;;;;8.84;75.73;96518.56;6706835;26;20283;-55
2024/04/17 14:21:56;;;;;;;1.90;1.70;;;;;;;8.86;74.87;96519.88;6717518;26;20233;-53
2024/04/17 14:24:58;;;;;;;2.57;2.30;;;;;;;8.90;72.12;96526.28;6706616;26;20241;-54
2024/04/17 14:28:02;;;;;;;2.10;1.97;;;;;;;8.95;71.73;96523.63;6722284;26;20248;-53
2024/04/17 14:31:07;;;;;;;1.80;1.70;;;;;;;8.90;68.81;96509.53;6719687;26;20234;-53
2024/04/17 14:34:09;;;;;;;1.93;1.83;;;;;;;8.73;70.24;96496.47;6705934;26;20241;-55